sensor_id;sensor_type;location;lat;lon;timestamp;P1;durP1;ratioP1;P2;durP2;ratioP2
18899;SDS011;9582;52.018;6.306;2023-08-08T00:00:11;7.15;;;5.50;;
18899;SDS011;9582;52.018;6.306;2023-08-08T00:02:38;9.50;;;6.88;;
18899;SDS011;9582;52.018;6.306;2023-08-08T00:05:05;7.25;;;6.55;;
18899;SDS011;9582;52.018;6.306;2023-08-08T00:07:32;9.13;;;5.95;;
18899;SDS011;9582;52.018;6.306;2023-08-08T00:10:00;7.10;;;5.72;;
18899;SDS011;9582;52.018;6.306;2023-08-08T00:12:26;8.07;;;6.00;;
18899;SDS011;9582;52.018;6.306;2023-08-08T00:14:53;7.38;;;6.05;;
18899;SDS011;9582;52.018;6.306;2023-08-08T00:17:19;10.73;;;7.10;;
18899;SDS011;9582;52.018;6.306;2023-08-08T00:19:46;8.10;;;7.10;;
18899;SDS011;9582;52.018;6.306;2023-08-08T00:22:12;11.95;;;8.02;;
18899;SDS011;9582;52.018;6.306;2023-08-08T00:24:39;9.38;;;8.00;;
18899;SDS011;9582;52.018;6.306;2023-08-08T00:27:07;10.52;;;8.05;;
18899;SDS011;9582;52.018;6.306;2023-08-08T00:29:33;10.30;;;7.90;;
18899;SDS011;9582;52.018;6.306;2023-08-08T00:31:59;10.32;;;7.78;;
18899;SDS011;9582;52.018;6.306;2023-08-08T00:34:26;10.35;;;7.88;;
18899;SDS011;9582;52.018;6.306;2023-08-08T00:36:53;11.93;;;8.48;;
18899;SDS011;9582;52.018;6.306;2023-08-08T00:39:20;10.93;;;8.25;;
18899;SDS011;9582;52.018;6.306;2023-08-08T00:41:46;11.43;;;8.18;;
18899;SDS011;9582;52.018;6.306;2023-08-08T00:44:15;11.85;;;8.52;;
18899;SDS011;9582;52.018;6.306;2023-08-08T00:46:42;12.38;;;8.93;;
18899;SDS011;9582;52.018;6.306;2023-08-08T00:49:08;16.60;;;10.20;;
18899;SDS011;9582;52.018;6.306;2023-08-08T00:51:35;13.65;;;9.75;;
18899;SDS011;9582;52.018;6.306;2023-08-08T00:54:02;12.77;;;10.07;;
18899;SDS011;9582;52.018;6.306;2023-08-08T00:56:29;14.32;;;9.75;;
18899;SDS011;9582;52.018;6.306;2023-08-08T00:58:56;12.93;;;9.65;;
18899;SDS011;9582;52.018;6.306;2023-08-08T01:01:24;15.40;;;9.80;;
18899;SDS011;9582;52.018;6.306;2023-08-08T01:03:51;13.00;;;9.43;;
18899;SDS011;9582;52.018;6.306;2023-08-08T01:06:19;14.20;;;9.32;;
18899;SDS011;9582;52.018;6.306;2023-08-08T01:08:55;14.93;;;9.93;;
18899;SDS011;9582;52.018;6.306;2023-08-08T01:11:24;11.88;;;8.77;;
18899;SDS011;9582;52.018;6.306;2023-08-08T01:13:52;11.35;;;8.55;;
18899;SDS011;9582;52.018;6.306;2023-08-08T01:16:20;13.05;;;8.95;;
18899;SDS011;9582;52.018;6.306;2023-08-08T01:18:49;13.43;;;8.57;;
18899;SDS011;9582;52.018;6.306;2023-08-08T01:21:16;11.82;;;8.50;;
18899;SDS011;9582;52.018;6.306;2023-08-08T01:23:43;10.98;;;8.27;;
18899;SDS011;9582;52.018;6.306;2023-08-08T01:26:15;11.60;;;8.20;;
18899;SDS011;9582;52.018;6.306;2023-08-08T01:28:42;11.10;;;7.38;;
18899;SDS011;9582;52.018;6.306;2023-08-08T01:31:08;9.60;;;7.30;;
18899;SDS011;9582;52.018;6.306;2023-08-08T01:33:35;11.10;;;8.20;;
18899;SDS011;9582;52.018;6.306;2023-08-08T01:36:02;12.05;;;7.55;;
18899;SDS011;9582;52.018;6.306;2023-08-08T01:38:34;9.73;;;6.90;;
18899;SDS011;9582;52.018;6.306;2023-08-08T01:41:04;8.30;;;6.03;;
18899;SDS011;9582;52.018;6.306;2023-08-08T01:43:34;6.32;;;4.90;;
18899;SDS011;9582;52.018;6.306;2023-08-08T01:46:03;11.45;;;6.93;;
18899;SDS011;9582;52.018;6.306;2023-08-08T01:48:30;11.88;;;7.55;;
18899;SDS011;9582;52.018;6.306;2023-08-08T01:50:57;12.15;;;7.50;;
18899;SDS011;9582;52.018;6.306;2023-08-08T01:53:24;11.07;;;6.97;;
18899;SDS011;9582;52.018;6.306;2023-08-08T01:55:52;9.98;;;7.30;;
18899;SDS011;9582;52.018;6.306;2023-08-08T01:58:18;17.73;;;8.25;;
18899;SDS011;9582;52.018;6.306;2023-08-08T02:00:46;12.20;;;6.75;;
18899;SDS011;9582;52.018;6.306;2023-08-08T02:03:13;13.15;;;7.72;;
18899;SDS011;9582;52.018;6.306;2023-08-08T02:05:39;9.85;;;7.15;;
18899;SDS011;9582;52.018;6.306;2023-08-08T02:08:06;11.15;;;7.38;;
18899;SDS011;9582;52.018;6.306;2023-08-08T02:10:34;14.15;;;6.85;;
18899;SDS011;9582;52.018;6.306;2023-08-08T02:13:00;9.98;;;6.97;;
18899;SDS011;9582;52.018;6.306;2023-08-08T02:15:27;11.90;;;7.13;;
18899;SDS011;9582;52.018;6.306;2023-08-08T02:17:55;12.05;;;6.20;;
18899;SDS011;9582;52.018;6.306;2023-08-08T02:20:22;10.10;;;6.80;;
18899;SDS011;9582;52.018;6.306;2023-08-08T02:22:50;12.10;;;6.90;;
18899;SDS011;9582;52.018;6.306;2023-08-08T02:25:16;15.95;;;7.13;;
18899;SDS011;9582;52.018;6.306;2023-08-08T02:27:43;13.38;;;7.30;;
18899;SDS011;9582;52.018;6.306;2023-08-08T02:30:10;13.27;;;7.20;;
18899;SDS011;9582;52.018;6.306;2023-08-08T02:32:37;9.00;;;6.38;;
18899;SDS011;9582;52.018;6.306;2023-08-08T02:35:05;10.50;;;6.90;;
18899;SDS011;9582;52.018;6.306;2023-08-08T02:37:32;12.95;;;6.30;;
18899;SDS011;9582;52.018;6.306;2023-08-08T02:39:59;11.48;;;6.82;;
18899;SDS011;9582;52.018;6.306;2023-08-08T02:42:26;10.20;;;6.47;;
18899;SDS011;9582;52.018;6.306;2023-08-08T02:44:53;12.93;;;7.03;;
18899;SDS011;9582;52.018;6.306;2023-08-08T02:47:19;7.70;;;6.28;;
18899;SDS011;9582;52.018;6.306;2023-08-08T02:49:46;12.20;;;6.43;;
18899;SDS011;9582;52.018;6.306;2023-08-08T02:52:14;10.80;;;6.50;;
18899;SDS011;9582;52.018;6.306;2023-08-08T02:54:41;9.98;;;6.47;;
18899;SDS011;9582;52.018;6.306;2023-08-08T02:57:07;10.15;;;6.00;;
18899;SDS011;9582;52.018;6.306;2023-08-08T02:59:36;11.68;;;6.20;;
18899;SDS011;9582;52.018;6.306;2023-08-08T03:02:04;8.27;;;6.28;;
18899;SDS011;9582;52.018;6.306;2023-08-08T03:04:33;10.80;;;6.53;;
18899;SDS011;9582;52.018;6.306;2023-08-08T03:07:02;10.57;;;6.85;;
18899;SDS011;9582;52.018;6.306;2023-08-08T03:09:32;12.48;;;6.30;;
18899;SDS011;9582;52.018;6.306;2023-08-08T03:11:58;12.18;;;5.88;;
18899;SDS011;9582;52.018;6.306;2023-08-08T03:14:25;12.15;;;6.65;;
18899;SDS011;9582;52.018;6.306;2023-08-08T03:16:52;12.45;;;6.38;;
18899;SDS011;9582;52.018;6.306;2023-08-08T03:19:19;9.52;;;6.47;;
18899;SDS011;9582;52.018;6.306;2023-08-08T03:21:46;11.05;;;5.95;;
18899;SDS011;9582;52.018;6.306;2023-08-08T03:24:12;11.23;;;6.15;;
18899;SDS011;9582;52.018;6.306;2023-08-08T03:26:40;8.35;;;5.70;;
18899;SDS011;9582;52.018;6.306;2023-08-08T03:29:07;7.72;;;5.45;;
18899;SDS011;9582;52.018;6.306;2023-08-08T03:31:39;12.85;;;6.28;;
18899;SDS011;9582;52.018;6.306;2023-08-08T03:34:06;11.40;;;5.68;;
18899;SDS011;9582;52.018;6.306;2023-08-08T03:36:33;8.45;;;5.53;;
18899;SDS011;9582;52.018;6.306;2023-08-08T03:39:00;10.10;;;5.57;;
18899;SDS011;9582;52.018;6.306;2023-08-08T03:41:28;11.10;;;5.85;;
18899;SDS011;9582;52.018;6.306;2023-08-08T03:43:56;11.27;;;5.38;;
18899;SDS011;9582;52.018;6.306;2023-08-08T03:46:24;12.82;;;6.22;;
18899;SDS011;9582;52.018;6.306;2023-08-08T03:48:50;8.07;;;5.32;;
18899;SDS011;9582;52.018;6.306;2023-08-08T03:51:17;10.45;;;6.20;;
18899;SDS011;9582;52.018;6.306;2023-08-08T03:53:43;10.52;;;6.40;;
18899;SDS011;9582;52.018;6.306;2023-08-08T03:56:11;11.38;;;6.57;;
18899;SDS011;9582;52.018;6.306;2023-08-08T03:58:37;11.43;;;7.03;;
18899;SDS011;9582;52.018;6.306;2023-08-08T04:01:06;12.15;;;7.05;;
18899;SDS011;9582;52.018;6.306;2023-08-08T04:03:32;11.45;;;7.00;;
18899;SDS011;9582;52.018;6.306;2023-08-08T04:05:59;14.00;;;7.47;;
18899;SDS011;9582;52.018;6.306;2023-08-08T04:08:26;13.52;;;7.78;;
18899;SDS011;9582;52.018;6.306;2023-08-08T04:10:52;16.80;;;7.80;;
18899;SDS011;9582;52.018;6.306;2023-08-08T04:13:19;13.35;;;7.45;;
18899;SDS011;9582;52.018;6.306;2023-08-08T04:15:45;16.15;;;7.40;;
18899;SDS011;9582;52.018;6.306;2023-08-08T04:18:13;15.73;;;7.85;;
18899;SDS011;9582;52.018;6.306;2023-08-08T04:20:39;12.20;;;6.78;;
18899;SDS011;9582;52.018;6.306;2023-08-08T04:23:06;11.18;;;7.38;;
18899;SDS011;9582;52.018;6.306;2023-08-08T04:25:32;11.00;;;7.15;;
18899;SDS011;9582;52.018;6.306;2023-08-08T04:27:59;13.65;;;7.95;;
18899;SDS011;9582;52.018;6.306;2023-08-08T04:30:25;14.07;;;7.72;;
18899;SDS011;9582;52.018;6.306;2023-08-08T04:32:52;15.93;;;8.40;;
18899;SDS011;9582;52.018;6.306;2023-08-08T04:35:19;17.27;;;8.82;;
18899;SDS011;9582;52.018;6.306;2023-08-08T04:37:46;13.68;;;8.65;;
18899;SDS011;9582;52.018;6.306;2023-08-08T04:40:12;16.38;;;8.00;;
18899;SDS011;9582;52.018;6.306;2023-08-08T04:42:39;13.63;;;7.68;;
18899;SDS011;9582;52.018;6.306;2023-08-08T04:45:06;12.27;;;7.20;;
18899;SDS011;9582;52.018;6.306;2023-08-08T04:47:33;13.60;;;7.45;;
18899;SDS011;9582;52.018;6.306;2023-08-08T04:50:00;16.25;;;8.23;;
18899;SDS011;9582;52.018;6.306;2023-08-08T04:52:28;13.68;;;8.27;;
18899;SDS011;9582;52.018;6.306;2023-08-08T04:54:54;17.52;;;8.15;;
18899;SDS011;9582;52.018;6.306;2023-08-08T04:57:21;13.63;;;7.25;;
18899;SDS011;9582;52.018;6.306;2023-08-08T04:59:47;10.82;;;7.13;;
18899;SDS011;9582;52.018;6.306;2023-08-08T05:02:14;14.95;;;7.22;;
18899;SDS011;9582;52.018;6.306;2023-08-08T05:04:41;13.25;;;7.68;;
18899;SDS011;9582;52.018;6.306;2023-08-08T05:07:08;13.15;;;8.35;;
18899;SDS011;9582;52.018;6.306;2023-08-08T05:09:35;16.30;;;9.05;;
18899;SDS011;9582;52.018;6.306;2023-08-08T05:12:02;11.10;;;7.85;;
18899;SDS011;9582;52.018;6.306;2023-08-08T05:14:29;19.85;;;7.88;;
18899;SDS011;9582;52.018;6.306;2023-08-08T05:16:55;19.30;;;8.63;;
18899;SDS011;9582;52.018;6.306;2023-08-08T05:19:22;13.00;;;7.85;;
18899;SDS011;9582;52.018;6.306;2023-08-08T05:21:49;18.58;;;8.98;;
18899;SDS011;9582;52.018;6.306;2023-08-08T05:24:16;14.88;;;8.68;;
18899;SDS011;9582;52.018;6.306;2023-08-08T05:26:46;16.48;;;8.52;;
18899;SDS011;9582;52.018;6.306;2023-08-08T05:29:12;16.90;;;8.95;;
18899;SDS011;9582;52.018;6.306;2023-08-08T05:31:39;13.15;;;8.80;;
18899;SDS011;9582;52.018;6.306;2023-08-08T05:34:05;14.98;;;9.07;;
18899;SDS011;9582;52.018;6.306;2023-08-08T05:36:32;19.85;;;9.40;;
18899;SDS011;9582;52.018;6.306;2023-08-08T05:38:58;14.75;;;8.88;;
18899;SDS011;9582;52.018;6.306;2023-08-08T05:41:25;16.23;;;9.52;;
18899;SDS011;9582;52.018;6.306;2023-08-08T05:43:53;13.32;;;8.30;;
18899;SDS011;9582;52.018;6.306;2023-08-08T05:46:19;17.83;;;9.60;;
18899;SDS011;9582;52.018;6.306;2023-08-08T05:48:46;16.75;;;9.45;;
18899;SDS011;9582;52.018;6.306;2023-08-08T05:51:12;16.40;;;9.02;;
18899;SDS011;9582;52.018;6.306;2023-08-08T05:53:39;16.00;;;9.27;;
18899;SDS011;9582;52.018;6.306;2023-08-08T05:56:05;13.85;;;9.07;;
18899;SDS011;9582;52.018;6.306;2023-08-08T05:58:33;12.30;;;8.63;;
18899;SDS011;9582;52.018;6.306;2023-08-08T06:01:03;19.08;;;10.13;;
18899;SDS011;9582;52.018;6.306;2023-08-08T06:03:31;18.50;;;9.07;;
18899;SDS011;9582;52.018;6.306;2023-08-08T06:05:58;16.17;;;9.48;;
18899;SDS011;9582;52.018;6.306;2023-08-08T06:08:24;17.13;;;9.60;;
18899;SDS011;9582;52.018;6.306;2023-08-08T06:10:51;16.00;;;9.25;;
18899;SDS011;9582;52.018;6.306;2023-08-08T06:13:17;19.20;;;10.32;;
18899;SDS011;9582;52.018;6.306;2023-08-08T06:15:44;18.85;;;9.95;;
18899;SDS011;9582;52.018;6.306;2023-08-08T06:18:12;17.48;;;9.68;;
18899;SDS011;9582;52.018;6.306;2023-08-08T06:20:38;21.20;;;10.38;;
18899;SDS011;9582;52.018;6.306;2023-08-08T06:23:05;17.42;;;9.90;;
18899;SDS011;9582;52.018;6.306;2023-08-08T06:25:31;23.15;;;9.45;;
18899;SDS011;9582;52.018;6.306;2023-08-08T06:27:58;18.05;;;10.18;;
18899;SDS011;9582;52.018;6.306;2023-08-08T06:30:24;15.57;;;10.05;;
18899;SDS011;9582;52.018;6.306;2023-08-08T06:32:51;19.13;;;9.73;;
18899;SDS011;9582;52.018;6.306;2023-08-08T06:35:19;16.88;;;9.82;;
18899;SDS011;9582;52.018;6.306;2023-08-08T06:37:45;13.52;;;9.48;;
18899;SDS011;9582;52.018;6.306;2023-08-08T06:40:12;12.73;;;7.65;;
18899;SDS011;9582;52.018;6.306;2023-08-08T06:42:38;16.50;;;8.55;;
18899;SDS011;9582;52.018;6.306;2023-08-08T06:45:06;14.57;;;8.13;;
18899;SDS011;9582;52.018;6.306;2023-08-08T06:47:34;12.82;;;7.68;;
18899;SDS011;9582;52.018;6.306;2023-08-08T06:50:01;15.48;;;7.78;;
18899;SDS011;9582;52.018;6.306;2023-08-08T06:52:29;13.95;;;6.85;;
18899;SDS011;9582;52.018;6.306;2023-08-08T06:54:56;12.07;;;7.63;;
18899;SDS011;9582;52.018;6.306;2023-08-08T06:57:22;12.60;;;7.75;;
18899;SDS011;9582;52.018;6.306;2023-08-08T06:59:49;10.05;;;6.72;;
18899;SDS011;9582;52.018;6.306;2023-08-08T07:02:18;10.52;;;6.13;;
18899;SDS011;9582;52.018;6.306;2023-08-08T07:04:45;12.27;;;5.93;;
18899;SDS011;9582;52.018;6.306;2023-08-08T07:07:12;12.88;;;5.78;;
18899;SDS011;9582;52.018;6.306;2023-08-08T07:09:39;9.82;;;5.18;;
18899;SDS011;9582;52.018;6.306;2023-08-08T07:12:07;12.00;;;4.75;;
18899;SDS011;9582;52.018;6.306;2023-08-08T07:14:34;11.15;;;5.13;;
18899;SDS011;9582;52.018;6.306;2023-08-08T07:17:00;9.57;;;4.10;;
18899;SDS011;9582;52.018;6.306;2023-08-08T07:19:28;9.70;;;4.10;;
18899;SDS011;9582;52.018;6.306;2023-08-08T07:21:54;10.55;;;4.20;;
18899;SDS011;9582;52.018;6.306;2023-08-08T07:24:21;6.65;;;4.28;;
18899;SDS011;9582;52.018;6.306;2023-08-08T07:26:53;6.57;;;4.10;;
18899;SDS011;9582;52.018;6.306;2023-08-08T07:29:19;7.38;;;4.10;;
18899;SDS011;9582;52.018;6.306;2023-08-08T07:31:46;6.90;;;3.80;;
18899;SDS011;9582;52.018;6.306;2023-08-08T07:34:12;5.93;;;3.35;;
18899;SDS011;9582;52.018;6.306;2023-08-08T07:36:40;7.45;;;3.60;;
18899;SDS011;9582;52.018;6.306;2023-08-08T07:39:06;6.43;;;3.33;;
18899;SDS011;9582;52.018;6.306;2023-08-08T07:41:34;8.00;;;3.50;;
18899;SDS011;9582;52.018;6.306;2023-08-08T07:44:02;6.55;;;3.80;;
18899;SDS011;9582;52.018;6.306;2023-08-08T07:46:29;7.35;;;2.60;;
18899;SDS011;9582;52.018;6.306;2023-08-08T07:48:55;6.45;;;2.70;;
18899;SDS011;9582;52.018;6.306;2023-08-08T07:51:24;5.05;;;2.17;;
18899;SDS011;9582;52.018;6.306;2023-08-08T07:53:50;6.55;;;2.15;;
18899;SDS011;9582;52.018;6.306;2023-08-08T07:56:17;6.40;;;2.53;;
18899;SDS011;9582;52.018;6.306;2023-08-08T07:58:44;6.82;;;2.45;;
18899;SDS011;9582;52.018;6.306;2023-08-08T08:01:11;4.07;;;2.05;;
18899;SDS011;9582;52.018;6.306;2023-08-08T08:03:39;6.35;;;2.10;;
18899;SDS011;9582;52.018;6.306;2023-08-08T08:06:06;5.25;;;2.22;;
18899;SDS011;9582;52.018;6.306;2023-08-08T08:08:32;3.60;;;1.77;;
18899;SDS011;9582;52.018;6.306;2023-08-08T08:10:59;4.40;;;1.75;;
18899;SDS011;9582;52.018;6.306;2023-08-08T08:13:27;4.30;;;1.30;;
18899;SDS011;9582;52.018;6.306;2023-08-08T08:15:53;2.95;;;1.30;;
18899;SDS011;9582;52.018;6.306;2023-08-08T08:18:21;3.30;;;1.40;;
18899;SDS011;9582;52.018;6.306;2023-08-08T08:20:48;2.97;;;1.10;;
18899;SDS011;9582;52.018;6.306;2023-08-08T08:23:15;4.38;;;1.73;;
18899;SDS011;9582;52.018;6.306;2023-08-08T08:25:41;4.60;;;1.00;;
18899;SDS011;9582;52.018;6.306;2023-08-08T08:28:08;3.38;;;1.27;;
18899;SDS011;9582;52.018;6.306;2023-08-08T08:30:34;2.40;;;0.98;;
18899;SDS011;9582;52.018;6.306;2023-08-08T08:33:02;0.75;;;0.73;;
18899;SDS011;9582;52.018;6.306;2023-08-08T08:35:30;3.25;;;1.20;;
18899;SDS011;9582;52.018;6.306;2023-08-08T08:37:58;2.83;;;1.27;;
18899;SDS011;9582;52.018;6.306;2023-08-08T08:40:24;2.83;;;1.30;;
18899;SDS011;9582;52.018;6.306;2023-08-08T08:42:51;4.43;;;1.27;;
18899;SDS011;9582;52.018;6.306;2023-08-08T08:45:18;2.95;;;0.93;;
18899;SDS011;9582;52.018;6.306;2023-08-08T08:47:46;5.15;;;1.17;;
18899;SDS011;9582;52.018;6.306;2023-08-08T08:50:13;2.50;;;1.38;;
18899;SDS011;9582;52.018;6.306;2023-08-08T08:52:42;1.45;;;0.90;;
18899;SDS011;9582;52.018;6.306;2023-08-08T08:55:09;3.00;;;1.10;;
18899;SDS011;9582;52.018;6.306;2023-08-08T08:57:36;3.30;;;0.95;;
18899;SDS011;9582;52.018;6.306;2023-08-08T09:00:05;2.55;;;1.20;;
18899;SDS011;9582;52.018;6.306;2023-08-08T09:02:41;2.08;;;1.00;;
18899;SDS011;9582;52.018;6.306;2023-08-08T09:05:08;2.17;;;0.80;;
18899;SDS011;9582;52.018;6.306;2023-08-08T09:07:36;3.78;;;1.00;;
18899;SDS011;9582;52.018;6.306;2023-08-08T09:10:05;2.33;;;1.00;;
18899;SDS011;9582;52.018;6.306;2023-08-08T09:12:32;2.20;;;1.10;;
18899;SDS011;9582;52.018;6.306;2023-08-08T09:15:02;4.13;;;1.00;;
18899;SDS011;9582;52.018;6.306;2023-08-08T09:17:29;1.48;;;0.90;;
18899;SDS011;9582;52.018;6.306;2023-08-08T09:19:57;1.73;;;0.70;;
18899;SDS011;9582;52.018;6.306;2023-08-08T09:22:24;1.35;;;0.82;;
18899;SDS011;9582;52.018;6.306;2023-08-08T09:24:51;2.05;;;0.90;;
18899;SDS011;9582;52.018;6.306;2023-08-08T09:27:19;1.85;;;0.85;;
18899;SDS011;9582;52.018;6.306;2023-08-08T09:29:47;1.55;;;0.80;;
18899;SDS011;9582;52.018;6.306;2023-08-08T09:32:14;2.42;;;0.95;;
18899;SDS011;9582;52.018;6.306;2023-08-08T09:34:43;1.70;;;0.88;;
18899;SDS011;9582;52.018;6.306;2023-08-08T09:37:10;1.35;;;0.90;;
18899;SDS011;9582;52.018;6.306;2023-08-08T09:39:37;1.92;;;0.90;;
18899;SDS011;9582;52.018;6.306;2023-08-08T09:42:03;1.67;;;0.80;;
18899;SDS011;9582;52.018;6.306;2023-08-08T09:44:32;1.65;;;1.17;;
18899;SDS011;9582;52.018;6.306;2023-08-08T09:47:00;3.28;;;0.90;;
18899;SDS011;9582;52.018;6.306;2023-08-08T09:49:27;6.95;;;1.30;;
18899;SDS011;9582;52.018;6.306;2023-08-08T09:51:54;2.13;;;0.77;;
18899;SDS011;9582;52.018;6.306;2023-08-08T09:54:21;0.60;;;0.50;;
18899;SDS011;9582;52.018;6.306;2023-08-08T09:56:49;2.22;;;0.80;;
18899;SDS011;9582;52.018;6.306;2023-08-08T09:59:17;1.00;;;0.60;;
18899;SDS011;9582;52.018;6.306;2023-08-08T10:01:45;5.82;;;0.90;;
18899;SDS011;9582;52.018;6.306;2023-08-08T10:04:12;1.00;;;0.70;;
18899;SDS011;9582;52.018;6.306;2023-08-08T10:06:39;1.40;;;0.73;;
18899;SDS011;9582;52.018;6.306;2023-08-08T10:09:06;2.65;;;0.70;;
18899;SDS011;9582;52.018;6.306;2023-08-08T10:11:36;0.45;;;0.40;;
18899;SDS011;9582;52.018;6.306;2023-08-08T10:14:04;2.03;;;0.60;;
18899;SDS011;9582;52.018;6.306;2023-08-08T10:16:31;1.50;;;0.52;;
18899;SDS011;9582;52.018;6.306;2023-08-08T10:19:00;1.45;;;0.80;;
18899;SDS011;9582;52.018;6.306;2023-08-08T10:21:28;1.23;;;0.50;;
18899;SDS011;9582;52.018;6.306;2023-08-08T10:24:03;1.02;;;0.60;;
18899;SDS011;9582;52.018;6.306;2023-08-08T10:26:31;1.60;;;0.50;;
18899;SDS011;9582;52.018;6.306;2023-08-08T10:28:58;2.00;;;0.68;;
18899;SDS011;9582;52.018;6.306;2023-08-08T10:31:27;0.82;;;0.50;;
18899;SDS011;9582;52.018;6.306;2023-08-08T10:34:02;0.50;;;0.50;;
18899;SDS011;9582;52.018;6.306;2023-08-08T10:36:43;1.15;;;0.70;;
18899;SDS011;9582;52.018;6.306;2023-08-08T10:39:11;2.42;;;0.60;;
18899;SDS011;9582;52.018;6.306;2023-08-08T10:41:44;0.75;;;0.60;;
18899;SDS011;9582;52.018;6.306;2023-08-08T10:44:12;1.92;;;0.90;;
18899;SDS011;9582;52.018;6.306;2023-08-08T10:46:40;1.48;;;0.70;;
18899;SDS011;9582;52.018;6.306;2023-08-08T10:49:10;1.48;;;0.70;;
18899;SDS011;9582;52.018;6.306;2023-08-08T10:51:38;1.25;;;0.73;;
18899;SDS011;9582;52.018;6.306;2023-08-08T10:54:11;1.17;;;0.88;;
18899;SDS011;9582;52.018;6.306;2023-08-08T10:56:39;1.10;;;0.70;;
18899;SDS011;9582;52.018;6.306;2023-08-08T10:59:13;1.20;;;0.90;;
18899;SDS011;9582;52.018;6.306;2023-08-08T11:01:41;1.65;;;0.73;;
18899;SDS011;9582;52.018;6.306;2023-08-08T11:04:12;2.38;;;1.10;;
18899;SDS011;9582;52.018;6.306;2023-08-08T11:06:42;1.85;;;0.70;;
18899;SDS011;9582;52.018;6.306;2023-08-08T11:09:08;3.70;;;0.90;;
18899;SDS011;9582;52.018;6.306;2023-08-08T11:11:36;1.58;;;0.70;;
18899;SDS011;9582;52.018;6.306;2023-08-08T11:14:10;1.05;;;0.60;;
18899;SDS011;9582;52.018;6.306;2023-08-08T11:16:38;0.77;;;0.70;;
18899;SDS011;9582;52.018;6.306;2023-08-08T11:19:04;0.68;;;0.60;;
18899;SDS011;9582;52.018;6.306;2023-08-08T11:21:34;0.90;;;0.80;;
18899;SDS011;9582;52.018;6.306;2023-08-08T11:24:02;2.22;;;0.93;;
18899;SDS011;9582;52.018;6.306;2023-08-08T11:26:29;1.10;;;1.00;;
18899;SDS011;9582;52.018;6.306;2023-08-08T11:28:57;1.05;;;0.73;;
18899;SDS011;9582;52.018;6.306;2023-08-08T11:31:24;2.63;;;1.02;;
18899;SDS011;9582;52.018;6.306;2023-08-08T11:33:52;0.77;;;0.60;;
18899;SDS011;9582;52.018;6.306;2023-08-08T11:36:19;1.77;;;0.90;;
18899;SDS011;9582;52.018;6.306;2023-08-08T11:38:47;3.22;;;0.90;;
18899;SDS011;9582;52.018;6.306;2023-08-08T11:41:15;1.17;;;0.70;;
18899;SDS011;9582;52.018;6.306;2023-08-08T11:43:43;0.70;;;0.70;;
18899;SDS011;9582;52.018;6.306;2023-08-08T11:46:10;1.52;;;0.90;;
18899;SDS011;9582;52.018;6.306;2023-08-08T11:48:38;1.98;;;0.80;;
18899;SDS011;9582;52.018;6.306;2023-08-08T11:51:05;2.30;;;0.93;;
18899;SDS011;9582;52.018;6.306;2023-08-08T11:53:32;2.00;;;1.02;;
18899;SDS011;9582;52.018;6.306;2023-08-08T11:56:00;1.20;;;0.90;;
18899;SDS011;9582;52.018;6.306;2023-08-08T11:58:28;2.05;;;0.93;;
18899;SDS011;9582;52.018;6.306;2023-08-08T12:00:55;1.27;;;0.77;;
18899;SDS011;9582;52.018;6.306;2023-08-08T12:03:24;0.82;;;0.77;;
18899;SDS011;9582;52.018;6.306;2023-08-08T12:05:51;3.03;;;0.90;;
18899;SDS011;9582;52.018;6.306;2023-08-08T12:08:18;2.83;;;0.80;;
18899;SDS011;9582;52.018;6.306;2023-08-08T12:10:47;1.75;;;0.90;;
18899;SDS011;9582;52.018;6.306;2023-08-08T12:13:19;1.88;;;1.10;;
18899;SDS011;9582;52.018;6.306;2023-08-08T12:15:46;2.10;;;0.60;;
18899;SDS011;9582;52.018;6.306;2023-08-08T12:18:15;0.70;;;0.70;;
18899;SDS011;9582;52.018;6.306;2023-08-08T12:20:43;1.17;;;0.77;;
18899;SDS011;9582;52.018;6.306;2023-08-08T12:23:09;0.70;;;0.70;;
18899;SDS011;9582;52.018;6.306;2023-08-08T12:25:36;3.13;;;1.17;;
18899;SDS011;9582;52.018;6.306;2023-08-08T12:28:03;1.60;;;0.90;;
18899;SDS011;9582;52.018;6.306;2023-08-08T12:30:31;1.30;;;0.85;;
18899;SDS011;9582;52.018;6.306;2023-08-08T12:32:58;1.23;;;0.75;;
18899;SDS011;9582;52.018;6.306;2023-08-08T12:35:24;2.28;;;1.10;;
18899;SDS011;9582;52.018;6.306;2023-08-08T12:37:52;2.55;;;1.17;;
18899;SDS011;9582;52.018;6.306;2023-08-08T12:40:19;2.33;;;0.90;;
18899;SDS011;9582;52.018;6.306;2023-08-08T12:42:45;1.20;;;0.93;;
18899;SDS011;9582;52.018;6.306;2023-08-08T12:45:13;1.83;;;1.23;;
18899;SDS011;9582;52.018;6.306;2023-08-08T12:47:41;2.88;;;1.10;;
18899;SDS011;9582;52.018;6.306;2023-08-08T12:50:07;3.38;;;0.95;;
18899;SDS011;9582;52.018;6.306;2023-08-08T12:52:34;2.55;;;1.10;;
18899;SDS011;9582;52.018;6.306;2023-08-08T12:55:01;1.20;;;1.00;;
18899;SDS011;9582;52.018;6.306;2023-08-08T12:57:28;2.47;;;1.13;;
18899;SDS011;9582;52.018;6.306;2023-08-08T12:59:54;2.95;;;1.05;;
18899;SDS011;9582;52.018;6.306;2023-08-08T13:02:21;1.00;;;0.90;;
18899;SDS011;9582;52.018;6.306;2023-08-08T13:04:48;2.42;;;1.20;;
18899;SDS011;9582;52.018;6.306;2023-08-08T13:07:15;1.80;;;1.13;;
18899;SDS011;9582;52.018;6.306;2023-08-08T13:09:42;2.17;;;0.90;;
18899;SDS011;9582;52.018;6.306;2023-08-08T13:12:08;1.13;;;1.00;;
18899;SDS011;9582;52.018;6.306;2023-08-08T13:14:35;1.08;;;0.98;;
18899;SDS011;9582;52.018;6.306;2023-08-08T13:17:02;1.80;;;1.17;;
18899;SDS011;9582;52.018;6.306;2023-08-08T13:19:29;1.77;;;1.15;;
18899;SDS011;9582;52.018;6.306;2023-08-08T13:21:57;2.10;;;0.93;;
18899;SDS011;9582;52.018;6.306;2023-08-08T13:24:23;1.00;;;0.90;;
18899;SDS011;9582;52.018;6.306;2023-08-08T13:26:50;1.90;;;1.10;;
18899;SDS011;9582;52.018;6.306;2023-08-08T13:29:17;1.10;;;1.00;;
18899;SDS011;9582;52.018;6.306;2023-08-08T13:31:44;3.72;;;1.20;;
18899;SDS011;9582;52.018;6.306;2023-08-08T13:34:10;1.63;;;1.35;;
18899;SDS011;9582;52.018;6.306;2023-08-08T13:36:37;1.50;;;1.15;;
18899;SDS011;9582;52.018;6.306;2023-08-08T13:39:05;2.80;;;1.40;;
18899;SDS011;9582;52.018;6.306;2023-08-08T13:41:31;1.33;;;1.02;;
18899;SDS011;9582;52.018;6.306;2023-08-08T13:43:58;1.77;;;1.10;;
18899;SDS011;9582;52.018;6.306;2023-08-08T13:46:24;2.47;;;1.17;;
18899;SDS011;9582;52.018;6.306;2023-08-08T13:48:50;1.15;;;1.05;;
18899;SDS011;9582;52.018;6.306;2023-08-08T13:51:17;2.63;;;1.38;;
18899;SDS011;9582;52.018;6.306;2023-08-08T13:53:44;3.55;;;1.50;;
18899;SDS011;9582;52.018;6.306;2023-08-08T13:56:12;1.52;;;1.05;;
18899;SDS011;9582;52.018;6.306;2023-08-08T13:58:39;1.75;;;1.20;;
18899;SDS011;9582;52.018;6.306;2023-08-08T14:01:05;1.20;;;1.00;;
18899;SDS011;9582;52.018;6.306;2023-08-08T14:03:32;1.33;;;0.82;;
18899;SDS011;9582;52.018;6.306;2023-08-08T14:05:59;3.63;;;1.20;;
18899;SDS011;9582;52.018;6.306;2023-08-08T14:08:26;1.30;;;1.00;;
18899;SDS011;9582;52.018;6.306;2023-08-08T14:10:52;3.50;;;1.17;;
18899;SDS011;9582;52.018;6.306;2023-08-08T14:13:20;1.75;;;1.10;;
18899;SDS011;9582;52.018;6.306;2023-08-08T14:15:47;2.42;;;1.50;;
18899;SDS011;9582;52.018;6.306;2023-08-08T14:18:14;2.97;;;0.82;;
18899;SDS011;9582;52.018;6.306;2023-08-08T14:20:40;1.60;;;1.30;;
18899;SDS011;9582;52.018;6.306;2023-08-08T14:23:07;1.95;;;1.30;;
18899;SDS011;9582;52.018;6.306;2023-08-08T14:25:33;2.63;;;1.17;;
18899;SDS011;9582;52.018;6.306;2023-08-08T14:28:00;1.70;;;1.30;;
18899;SDS011;9582;52.018;6.306;2023-08-08T14:30:30;2.65;;;1.50;;
18899;SDS011;9582;52.018;6.306;2023-08-08T14:32:56;3.72;;;1.83;;
18899;SDS011;9582;52.018;6.306;2023-08-08T14:35:23;3.28;;;1.40;;
18899;SDS011;9582;52.018;6.306;2023-08-08T14:37:49;2.13;;;1.30;;
18899;SDS011;9582;52.018;6.306;2023-08-08T14:40:16;1.80;;;1.40;;
18899;SDS011;9582;52.018;6.306;2023-08-08T14:42:42;2.17;;;1.27;;
18899;SDS011;9582;52.018;6.306;2023-08-08T14:45:09;2.50;;;1.25;;
18899;SDS011;9582;52.018;6.306;2023-08-08T14:47:37;1.52;;;1.20;;
18899;SDS011;9582;52.018;6.306;2023-08-08T14:50:04;2.17;;;1.30;;
18899;SDS011;9582;52.018;6.306;2023-08-08T14:52:33;1.67;;;1.15;;
18899;SDS011;9582;52.018;6.306;2023-08-08T14:55:00;1.77;;;0.90;;